sensor_id;sensor_type;location;lat;lon;timestamp;P1;durP1;ratioP1;P2;durP2;ratioP2
43682;SDS011;29285;52.128;21.060;2022-12-07T00:02:03;20.15;;;15.32;;
43682;SDS011;29285;52.128;21.060;2022-12-07T00:07:05;20.45;;;15.23;;
43682;SDS011;29285;52.128;21.060;2022-12-07T00:12:06;25.25;;;15.23;;
43682;SDS011;29285;52.128;21.060;2022-12-07T00:17:07;22.87;;;15.43;;
43682;SDS011;29285;52.128;21.060;2022-12-07T00:22:09;23.57;;;17.92;;
43682;SDS011;29285;52.128;21.060;2022-12-07T00:27:10;22.30;;;16.40;;
43682;SDS011;29285;52.128;21.060;2022-12-07T00:32:11;21.77;;;14.85;;
43682;SDS011;29285;52.128;21.060;2022-12-07T00:37:13;21.70;;;14.78;;
43682;SDS011;29285;52.128;21.060;2022-12-07T00:42:14;22.85;;;14.73;;
43682;SDS011;29285;52.128;21.060;2022-12-07T00:47:15;23.12;;;16.52;;
43682;SDS011;29285;52.128;21.060;2022-12-07T00:52:17;22.27;;;14.70;;
43682;SDS011;29285;52.128;21.060;2022-12-07T00:57:18;23.25;;;16.25;;
43682;SDS011;29285;52.128;21.060;2022-12-07T01:02:19;24.10;;;16.55;;
43682;SDS011;29285;52.128;21.060;2022-12-07T01:07:21;21.65;;;14.85;;
43682;SDS011;29285;52.128;21.060;2022-12-07T01:12:23;24.10;;;14.58;;
43682;SDS011;29285;52.128;21.060;2022-12-07T01:17:24;21.90;;;14.10;;
43682;SDS011;29285;52.128;21.060;2022-12-07T01:22:26;22.07;;;14.13;;
43682;SDS011;29285;52.128;21.060;2022-12-07T01:27:28;21.97;;;15.32;;
43682;SDS011;29285;52.128;21.060;2022-12-07T01:32:29;22.22;;;16.27;;
43682;SDS011;29285;52.128;21.060;2022-12-07T01:37:35;23.02;;;14.50;;
43682;SDS011;29285;52.128;21.060;2022-12-07T01:42:37;19.20;;;12.98;;
43682;SDS011;29285;52.128;21.060;2022-12-07T01:47:39;22.60;;;12.93;;
43682;SDS011;29285;52.128;21.060;2022-12-07T01:52:42;21.25;;;13.10;;
43682;SDS011;29285;52.128;21.060;2022-12-07T01:57:50;15.95;;;10.90;;
43682;SDS011;29285;52.128;21.060;2022-12-07T02:03:00;15.13;;;10.03;;
43682;SDS011;29285;52.128;21.060;2022-12-07T02:08:07;11.83;;;8.25;;
43682;SDS011;29285;52.128;21.060;2022-12-07T02:13:11;13.58;;;9.15;;
43682;SDS011;29285;52.128;21.060;2022-12-07T02:29:57;11.97;;;7.83;;
43682;SDS011;29285;52.128;21.060;2022-12-07T02:35:19;10.20;;;6.75;;
43682;SDS011;29285;52.128;21.060;2022-12-07T02:40:27;13.75;;;8.83;;
43682;SDS011;29285;52.128;21.060;2022-12-07T02:45:34;8.65;;;7.12;;
43682;SDS011;29285;52.128;21.060;2022-12-07T02:50:43;9.65;;;7.12;;
43682;SDS011;29285;52.128;21.060;2022-12-07T02:55:48;12.18;;;6.97;;
43682;SDS011;29285;52.128;21.060;2022-12-07T03:06:22;8.75;;;5.30;;
43682;SDS011;29285;52.128;21.060;2022-12-07T03:22:11;7.12;;;4.70;;
43682;SDS011;29285;52.128;21.060;2022-12-07T03:27:16;5.90;;;4.60;;
43682;SDS011;29285;52.128;21.060;2022-12-07T03:32:27;6.42;;;4.17;;
43682;SDS011;29285;52.128;21.060;2022-12-07T03:37:39;4.55;;;3.37;;
43682;SDS011;29285;52.128;21.060;2022-12-07T03:42:50;5.83;;;3.65;;
43682;SDS011;29285;52.128;21.060;2022-12-07T03:47:54;6.28;;;3.60;;
43682;SDS011;29285;52.128;21.060;2022-12-07T03:53:14;4.97;;;3.58;;
43682;SDS011;29285;52.128;21.060;2022-12-07T03:58:27;4.15;;;3.00;;
43682;SDS011;29285;52.128;21.060;2022-12-07T04:03:31;3.55;;;2.55;;
43682;SDS011;29285;52.128;21.060;2022-12-07T04:08:32;4.37;;;3.02;;
43682;SDS011;29285;52.128;21.060;2022-12-07T04:13:33;3.77;;;2.75;;
43682;SDS011;29285;52.128;21.060;2022-12-07T04:18:37;4.60;;;3.40;;
43682;SDS011;29285;52.128;21.060;2022-12-07T04:23:38;5.03;;;3.17;;
43682;SDS011;29285;52.128;21.060;2022-12-07T04:28:39;4.40;;;3.52;;
43682;SDS011;29285;52.128;21.060;2022-12-07T04:33:41;5.33;;;3.30;;
43682;SDS011;29285;52.128;21.060;2022-12-07T04:38:42;5.60;;;3.30;;
43682;SDS011;29285;52.128;21.060;2022-12-07T04:43:43;5.83;;;4.00;;
43682;SDS011;29285;52.128;21.060;2022-12-07T04:48:49;4.35;;;3.65;;
43682;SDS011;29285;52.128;21.060;2022-12-07T04:53:48;6.00;;;4.03;;
43682;SDS011;29285;52.128;21.060;2022-12-07T04:58:50;7.47;;;4.95;;
43682;SDS011;29285;52.128;21.060;2022-12-07T05:03:53;6.95;;;5.10;;
43682;SDS011;29285;52.128;21.060;2022-12-07T05:08:55;6.75;;;4.90;;
43682;SDS011;29285;52.128;21.060;2022-12-07T05:13:56;6.03;;;4.33;;
43682;SDS011;29285;52.128;21.060;2022-12-07T05:18:58;6.50;;;4.83;;
43682;SDS011;29285;52.128;21.060;2022-12-07T05:23:59;5.90;;;4.90;;
43682;SDS011;29285;52.128;21.060;2022-12-07T05:29:01;4.97;;;4.08;;
43682;SDS011;29285;52.128;21.060;2022-12-07T05:34:03;5.90;;;5.20;;
43682;SDS011;29285;52.128;21.060;2022-12-07T05:39:04;6.58;;;4.75;;
43682;SDS011;29285;52.128;21.060;2022-12-07T05:44:07;6.03;;;4.53;;
43682;SDS011;29285;52.128;21.060;2022-12-07T05:49:08;6.22;;;4.78;;
43682;SDS011;29285;52.128;21.060;2022-12-07T05:54:09;8.30;;;5.87;;
43682;SDS011;29285;52.128;21.060;2022-12-07T05:59:11;9.93;;;5.30;;
43682;SDS011;29285;52.128;21.060;2022-12-07T06:04:26;8.75;;;4.97;;
43682;SDS011;29285;52.128;21.060;2022-12-07T06:09:39;8.90;;;5.67;;
43682;SDS011;29285;52.128;21.060;2022-12-07T06:14:40;8.35;;;6.40;;
43682;SDS011;29285;52.128;21.060;2022-12-07T06:19:42;8.05;;;6.15;;
43682;SDS011;29285;52.128;21.060;2022-12-07T06:24:44;8.33;;;6.08;;
43682;SDS011;29285;52.128;21.060;2022-12-07T06:29:46;7.55;;;6.10;;
43682;SDS011;29285;52.128;21.060;2022-12-07T06:34:47;6.83;;;4.92;;
43682;SDS011;29285;52.128;21.060;2022-12-07T06:39:48;6.53;;;5.08;;
43682;SDS011;29285;52.128;21.060;2022-12-07T06:44:50;6.72;;;5.05;;
43682;SDS011;29285;52.128;21.060;2022-12-07T06:49:51;6.12;;;5.22;;
43682;SDS011;29285;52.128;21.060;2022-12-07T06:54:52;7.62;;;5.40;;
43682;SDS011;29285;52.128;21.060;2022-12-07T06:59:54;9.05;;;6.47;;
43682;SDS011;29285;52.128;21.060;2022-12-07T07:04:55;9.00;;;6.10;;
43682;SDS011;29285;52.128;21.060;2022-12-07T07:09:56;6.30;;;4.70;;
43682;SDS011;29285;52.128;21.060;2022-12-07T07:14:57;8.55;;;6.15;;
43682;SDS011;29285;52.128;21.060;2022-12-07T07:19:58;7.60;;;6.08;;
43682;SDS011;29285;52.128;21.060;2022-12-07T07:25:00;8.10;;;5.67;;
43682;SDS011;29285;52.128;21.060;2022-12-07T07:30:01;9.88;;;6.12;;
43682;SDS011;29285;52.128;21.060;2022-12-07T07:35:04;9.13;;;5.22;;
43682;SDS011;29285;52.128;21.060;2022-12-07T07:40:07;8.25;;;5.65;;
43682;SDS011;29285;52.128;21.060;2022-12-07T07:45:10;9.03;;;5.43;;
43682;SDS011;29285;52.128;21.060;2022-12-07T07:50:11;7.60;;;4.78;;
43682;SDS011;29285;52.128;21.060;2022-12-07T07:55:12;7.67;;;5.90;;
43682;SDS011;29285;52.128;21.060;2022-12-07T08:00:15;6.20;;;4.42;;
43682;SDS011;29285;52.128;21.060;2022-12-07T08:05:18;6.77;;;4.83;;
43682;SDS011;29285;52.128;21.060;2022-12-07T08:10:19;7.10;;;4.62;;
43682;SDS011;29285;52.128;21.060;2022-12-07T08:15:20;5.97;;;4.35;;
43682;SDS011;29285;52.128;21.060;2022-12-07T08:20:22;6.58;;;5.05;;
43682;SDS011;29285;52.128;21.060;2022-12-07T08:25:23;7.28;;;4.90;;
43682;SDS011;29285;52.128;21.060;2022-12-07T08:30:25;6.17;;;4.58;;
43682;SDS011;29285;52.128;21.060;2022-12-07T08:35:28;8.83;;;4.87;;
43682;SDS011;29285;52.128;21.060;2022-12-07T08:40:29;7.53;;;4.22;;
43682;SDS011;29285;52.128;21.060;2022-12-07T08:45:31;8.08;;;5.45;;
43682;SDS011;29285;52.128;21.060;2022-12-07T08:50:34;7.10;;;5.47;;
43682;SDS011;29285;52.128;21.060;2022-12-07T08:55:38;8.78;;;5.20;;
43682;SDS011;29285;52.128;21.060;2022-12-07T09:00:39;10.55;;;6.80;;
43682;SDS011;29285;52.128;21.060;2022-12-07T09:05:41;9.43;;;6.15;;
43682;SDS011;29285;52.128;21.060;2022-12-07T09:10:42;10.50;;;5.92;;
43682;SDS011;29285;52.128;21.060;2022-12-07T09:15:43;9.10;;;6.47;;
43682;SDS011;29285;52.128;21.060;2022-12-07T09:20:44;12.53;;;7.65;;
43682;SDS011;29285;52.128;21.060;2022-12-07T09:25:45;10.40;;;6.50;;
43682;SDS011;29285;52.128;21.060;2022-12-07T09:30:47;16.20;;;7.90;;
43682;SDS011;29285;52.128;21.060;2022-12-07T09:35:50;9.43;;;6.55;;
43682;SDS011;29285;52.128;21.060;2022-12-07T09:40:53;13.95;;;8.13;;
43682;SDS011;29285;52.128;21.060;2022-12-07T09:45:56;10.80;;;7.90;;
43682;SDS011;29285;52.128;21.060;2022-12-07T09:50:59;11.65;;;8.48;;
43682;SDS011;29285;52.128;21.060;2022-12-07T09:56:01;13.43;;;8.33;;
43682;SDS011;29285;52.128;21.060;2022-12-07T10:01:14;10.85;;;7.30;;
43682;SDS011;29285;52.128;21.060;2022-12-07T10:06:21;11.95;;;8.55;;
43682;SDS011;29285;52.128;21.060;2022-12-07T10:11:22;13.98;;;7.58;;
43682;SDS011;29285;52.128;21.060;2022-12-07T10:21:39;17.48;;;8.80;;
43682;SDS011;29285;52.128;21.060;2022-12-07T10:26:51;14.18;;;9.05;;
43682;SDS011;29285;52.128;21.060;2022-12-07T10:32:04;13.28;;;8.60;;
43682;SDS011;29285;52.128;21.060;2022-12-07T10:37:19;13.00;;;8.28;;
43682;SDS011;29285;52.128;21.060;2022-12-07T10:42:25;10.53;;;7.05;;
43682;SDS011;29285;52.128;21.060;2022-12-07T10:52:45;12.87;;;7.70;;
43682;SDS011;29285;52.128;21.060;2022-12-07T11:15:17;9.28;;;7.53;;
43682;SDS011;29285;52.128;21.060;2022-12-07T11:20:45;10.40;;;6.58;;
43682;SDS011;29285;52.128;21.060;2022-12-07T11:37:16;8.58;;;6.03;;
43682;SDS011;29285;52.128;21.060;2022-12-07T11:42:22;11.93;;;6.80;;
43682;SDS011;29285;52.128;21.060;2022-12-07T11:47:54;10.72;;;7.62;;
43682;SDS011;29285;52.128;21.060;2022-12-07T12:03:30;13.28;;;8.83;;
43682;SDS011;29285;52.128;21.060;2022-12-07T12:08:40;12.90;;;9.83;;
43682;SDS011;29285;52.128;21.060;2022-12-07T12:24:29;9.70;;;6.72;;
43682;SDS011;29285;52.128;21.060;2022-12-07T12:29:39;9.68;;;7.37;;
43682;SDS011;29285;52.128;21.060;2022-12-07T12:45:27;9.38;;;6.37;;
43682;SDS011;29285;52.128;21.060;2022-12-07T13:16:38;8.13;;;6.55;;
43682;SDS011;29285;52.128;21.060;2022-12-07T13:21:41;9.05;;;6.58;;
43682;SDS011;29285;52.128;21.060;2022-12-07T13:26:44;10.23;;;6.30;;
43682;SDS011;29285;52.128;21.060;2022-12-07T13:31:55;7.67;;;5.95;;
43682;SDS011;29285;52.128;21.060;2022-12-07T13:37:00;6.60;;;4.87;;
43682;SDS011;29285;52.128;21.060;2022-12-07T13:42:29;6.00;;;5.37;;
43682;SDS011;29285;52.128;21.060;2022-12-07T13:47:43;7.17;;;5.25;;
43682;SDS011;29285;52.128;21.060;2022-12-07T13:52:50;7.15;;;5.65;;
43682;SDS011;29285;52.128;21.060;2022-12-07T13:57:55;7.25;;;5.65;;
43682;SDS011;29285;52.128;21.060;2022-12-07T14:03:00;5.60;;;4.62;;
43682;SDS011;29285;52.128;21.060;2022-12-07T14:13:31;7.92;;;6.67;;
43682;SDS011;29285;52.128;21.060;2022-12-07T14:18:42;8.20;;;6.67;;
43682;SDS011;29285;52.128;21.060;2022-12-07T14:23:43;8.85;;;6.87;;
43682;SDS011;29285;52.128;21.060;2022-12-07T14:28:46;8.28;;;6.85;;
43682;SDS011;29285;52.128;21.060;2022-12-07T14:33:48;10.23;;;7.83;;
43682;SDS011;29285;52.128;21.060;2022-12-07T14:38:49;10.23;;;8.23;;
43682;SDS011;29285;52.128;21.060;2022-12-07T14:43:50;10.38;;;7.62;;
43682;SDS011;29285;52.128;21.060;2022-12-07T14:48:51;8.35;;;6.50;;
43682;SDS011;29285;52.128;21.060;2022-12-07T14:53:53;9.98;;;7.90;;
43682;SDS011;29285;52.128;21.060;2022-12-07T14:58:54;9.78;;;6.80;;
43682;SDS011;29285;52.128;21.060;2022-12-07T15:03:55;10.58;;;7.47;;
43682;SDS011;29285;52.128;21.060;2022-12-07T15:08:56;8.58;;;7.37;;
43682;SDS011;29285;52.128;21.060;2022-12-07T15:13:58;10.53;;;8.15;;
43682;SDS011;29285;52.128;21.060;2022-12-07T15:19:17;10.05;;;7.12;;
43682;SDS011;29285;52.128;21.060;2022-12-07T15:24:20;10.88;;;8.53;;
43682;SDS011;29285;52.128;21.060;2022-12-07T15:29:22;12.73;;;8.18;;
43682;SDS011;29285;52.128;21.060;2022-12-07T15:34:24;12.65;;;8.88;;
43682;SDS011;29285;52.128;21.060;2022-12-07T15:39:27;11.25;;;8.28;;
43682;SDS011;29285;52.128;21.060;2022-12-07T15:44:28;11.45;;;8.48;;
43682;SDS011;29285;52.128;21.060;2022-12-07T15:49:48;10.85;;;7.70;;
43682;SDS011;29285;52.128;21.060;2022-12-07T15:54:49;9.85;;;7.45;;
43682;SDS011;29285;52.128;21.060;2022-12-07T15:59:50;13.68;;;9.70;;
43682;SDS011;29285;52.128;21.060;2022-12-07T16:04:52;14.20;;;9.48;;
43682;SDS011;29285;52.128;21.060;2022-12-07T16:09:54;11.97;;;9.00;;
43682;SDS011;29285;52.128;21.060;2022-12-07T16:14:55;11.95;;;7.42;;
43682;SDS011;29285;52.128;21.060;2022-12-07T16:19:57;16.48;;;10.72;;
43682;SDS011;29285;52.128;21.060;2022-12-07T16:24:58;13.75;;;8.75;;
43682;SDS011;29285;52.128;21.060;2022-12-07T16:30:00;11.90;;;8.80;;
43682;SDS011;29285;52.128;21.060;2022-12-07T16:35:01;12.65;;;9.10;;
43682;SDS011;29285;52.128;21.060;2022-12-07T16:40:03;16.02;;;9.93;;
43682;SDS011;29285;52.128;21.060;2022-12-07T16:45:07;14.47;;;9.17;;
43682;SDS011;29285;52.128;21.060;2022-12-07T16:50:10;14.05;;;9.73;;
43682;SDS011;29285;52.128;21.060;2022-12-07T16:55:11;14.13;;;9.43;;
43682;SDS011;29285;52.128;21.060;2022-12-07T17:00:12;15.48;;;9.75;;
43682;SDS011;29285;52.128;21.060;2022-12-07T17:05:15;11.93;;;8.50;;
43682;SDS011;29285;52.128;21.060;2022-12-07T17:10:16;13.38;;;9.25;;
43682;SDS011;29285;52.128;21.060;2022-12-07T17:15:17;13.28;;;9.58;;
43682;SDS011;29285;52.128;21.060;2022-12-07T17:20:22;12.80;;;8.18;;
43682;SDS011;29285;52.128;21.060;2022-12-07T17:25:26;12.23;;;8.73;;
43682;SDS011;29285;52.128;21.060;2022-12-07T17:30:27;12.98;;;8.83;;
43682;SDS011;29285;52.128;21.060;2022-12-07T17:35:29;14.23;;;8.83;;
43682;SDS011;29285;52.128;21.060;2022-12-07T17:40:30;12.68;;;8.85;;
43682;SDS011;29285;52.128;21.060;2022-12-07T17:45:31;13.58;;;10.40;;
43682;SDS011;29285;52.128;21.060;2022-12-07T17:50:33;13.43;;;9.75;;
43682;SDS011;29285;52.128;21.060;2022-12-07T17:55:53;14.10;;;9.30;;
43682;SDS011;29285;52.128;21.060;2022-12-07T18:00:55;9.93;;;7.28;;
43682;SDS011;29285;52.128;21.060;2022-12-07T18:05:56;13.70;;;8.88;;
43682;SDS011;29285;52.128;21.060;2022-12-07T18:11:00;13.28;;;9.05;;
43682;SDS011;29285;52.128;21.060;2022-12-07T18:16:04;11.65;;;7.42;;
43682;SDS011;29285;52.128;21.060;2022-12-07T18:21:13;12.88;;;7.22;;
43682;SDS011;29285;52.128;21.060;2022-12-07T18:26:17;13.38;;;8.83;;
43682;SDS011;29285;52.128;21.060;2022-12-07T18:31:20;13.50;;;8.10;;
43682;SDS011;29285;52.128;21.060;2022-12-07T18:36:21;12.30;;;8.53;;
43682;SDS011;29285;52.128;21.060;2022-12-07T18:41:23;12.98;;;7.65;;
43682;SDS011;29285;52.128;21.060;2022-12-07T18:46:25;9.03;;;5.72;;
43682;SDS011;29285;52.128;21.060;2022-12-07T18:51:26;7.53;;;5.55;;
43682;SDS011;29285;52.128;21.060;2022-12-07T18:56:28;9.25;;;6.40;;
43682;SDS011;29285;52.128;21.060;2022-12-07T19:01:31;8.15;;;5.97;;
43682;SDS011;29285;52.128;21.060;2022-12-07T19:06:32;9.98;;;7.72;;
43682;SDS011;29285;52.128;21.060;2022-12-07T19:11:34;11.63;;;7.85;;
43682;SDS011;29285;52.128;21.060;2022-12-07T19:16:53;10.23;;;7.05;;
43682;SDS011;29285;52.128;21.060;2022-12-07T19:21:58;10.13;;;6.85;;
43682;SDS011;29285;52.128;21.060;2022-12-07T19:27:02;11.22;;;7.20;;
43682;SDS011;29285;52.128;21.060;2022-12-07T19:32:07;7.17;;;6.05;;
43682;SDS011;29285;52.128;21.060;2022-12-07T19:37:09;8.25;;;6.25;;
43682;SDS011;29285;52.128;21.060;2022-12-07T19:42:13;10.05;;;7.22;;
43682;SDS011;29285;52.128;21.060;2022-12-07T19:47:15;9.88;;;6.50;;
43682;SDS011;29285;52.128;21.060;2022-12-07T19:52:17;8.08;;;5.67;;
43682;SDS011;29285;52.128;21.060;2022-12-07T19:57:18;6.22;;;4.42;;
43682;SDS011;29285;52.128;21.060;2022-12-07T20:02:19;8.93;;;5.10;;
43682;SDS011;29285;52.128;21.060;2022-12-07T20:07:21;6.22;;;5.22;;
43682;SDS011;29285;52.128;21.060;2022-12-07T20:12:22;6.33;;;4.28;;
43682;SDS011;29285;52.128;21.060;2022-12-07T20:17:42;5.50;;;3.67;;
43682;SDS011;29285;52.128;21.060;2022-12-07T20:22:45;5.37;;;4.45;;
43682;SDS011;29285;52.128;21.060;2022-12-07T20:27:46;4.95;;;4.22;;
43682;SDS011;29285;52.128;21.060;2022-12-07T20:32:48;7.12;;;4.90;;
43682;SDS011;29285;52.128;21.060;2022-12-07T20:37:49;5.53;;;4.53;;
43682;SDS011;29285;52.128;21.060;2022-12-07T20:42:50;6.42;;;4.50;;
43682;SDS011;29285;52.128;21.060;2022-12-07T20:47:52;4.42;;;3.52;;
43682;SDS011;29285;52.128;21.060;2022-12-07T20:52:53;6.10;;;4.08;;
43682;SDS011;29285;52.128;21.060;2022-12-07T20:57:54;5.55;;;4.35;;
43682;SDS011;29285;52.128;21.060;2022-12-07T21:02:56;5.47;;;4.25;;
43682;SDS011;29285;52.128;21.060;2022-12-07T21:07:57;4.97;;;3.60;;
43682;SDS011;29285;52.128;21.060;2022-12-07T21:12:58;4.95;;;3.70;;
43682;SDS011;29285;52.128;21.060;2022-12-07T21:18:00;5.15;;;4.22;;
43682;SDS011;29285;52.128;21.060;2022-12-07T21:23:01;5.58;;;3.52;;
43682;SDS011;29285;52.128;21.060;2022-12-07T21:28:02;5.60;;;3.75;;
43682;SDS011;29285;52.128;21.060;2022-12-07T21:33:05;6.92;;;4.85;;
43682;SDS011;29285;52.128;21.060;2022-12-07T21:38:06;6.40;;;4.40;;
43682;SDS011;29285;52.128;21.060;2022-12-07T21:43:07;5.35;;;3.42;;
43682;SDS011;29285;52.128;21.060;2022-12-07T21:48:09;7.25;;;4.67;;
43682;SDS011;29285;52.128;21.060;2022-12-07T21:53:10;7.17;;;3.98;;
43682;SDS011;29285;52.128;21.060;2022-12-07T21:58:12;6.55;;;3.90;;
43682;SDS011;29285;52.128;21.060;2022-12-07T22:03:13;6.22;;;3.90;;
43682;SDS011;29285;52.128;21.060;2022-12-07T22:08:14;4.95;;;3.55;;
43682;SDS011;29285;52.128;21.060;2022-12-07T22:13:15;6.00;;;3.40;;
43682;SDS011;29285;52.128;21.060;2022-12-07T22:18:17;4.50;;;2.85;;
43682;SDS011;29285;52.128;21.060;2022-12-07T22:23:18;4.53;;;3.95;;
43682;SDS011;29285;52.128;21.060;2022-12-07T22:28:20;2.75;;;2.47;;
43682;SDS011;29285;52.128;21.060;2022-12-07T22:33:21;5.37;;;3.22;;
43682;SDS011;29285;52.128;21.060;2022-12-07T22:38:23;6.03;;;3.52;;
43682;SDS011;29285;52.128;21.060;2022-12-07T22:43:24;5.35;;;3.27;;
43682;SDS011;29285;52.128;21.060;2022-12-07T22:48:26;8.08;;;4.45;;
43682;SDS011;29285;52.128;21.060;2022-12-07T22:53:28;8.55;;;4.25;;
43682;SDS011;29285;52.128;21.060;2022-12-07T22:58:29;7.60;;;4.25;;
43682;SDS011;29285;52.128;21.060;2022-12-07T23:03:32;7.80;;;4.45;;
43682;SDS011;29285;52.128;21.060;2022-12-07T23:08:34;7.30;;;4.58;;
43682;SDS011;29285;52.128;21.060;2022-12-07T23:13:36;8.90;;;4.35;;
43682;SDS011;29285;52.128;21.060;2022-12-07T23:18:38;5.83;;;3.72;;
43682;SDS011;29285;52.128;21.060;2022-12-07T23:23:41;7.28;;;4.05;;
43682;SDS011;29285;52.128;21.060;2022-12-07T23:28:42;8.23;;;4.55;;
43682;SDS011;29285;52.128;21.060;2022-12-07T23:33:44;8.28;;;3.60;;
43682;SDS011;29285;52.128;21.060;2022-12-07T23:38:47;5.35;;;3.30;;
43682;SDS011;29285;52.128;21.060;2022-12-07T23:43:50;9.03;;;4.10;;
43682;SDS011;29285;52.128;21.060;2022-12-07T23:48:54;4.15;;;3.20;;
43682;SDS011;29285;52.128;21.060;2022-12-07T23:53:57;4.90;;;2.25;;
43682;SDS011;29285;52.128;21.060;2022-12-07T23:59:01;3.80;;;2.20;;
